Portada
METAR-TAF:

METAR-TAF

Aeroports :

Dakar, Senegal

latitud: 14-40-16N, longitud: 17-04-01W, altitud: 88 m

Observació

L'informe es va fer fa 24 minuts, a les 17:30 UTC
Vent 11 kt del Sud-Oest
Temperatura 30°C
Humitat 75%
Pressió 1012 hPa
Visibilitat 10 km o més
Escasses núvols a una alçada de 1800 ft

METAR: GOBD 191730Z 22011KT 9999 FEW018 30/25 Q1012 NOSIG

Hora: 17:54 (17:54 UTC)

Pronòstic

L'informe es va fer fa 54 minuts, a les 17:00 UTC
Pronòstic vàlid del 19 a les 18 UTC al 20 a les 24 UTC
Vent 9 kt del Oest/Sud-Oest
Visibilitat 10 km o més
Núvols disperses a una alçada de 1300 ft

TAF: GOBD 191700Z 1918/2024 25009KT 9999 SCT013

Observacions i pronòstics meteorològics de més de 4000 aeroports (METAR i TAF).

Les estacions disponibles són els punts grocs i vermells al mapa.

Posi el ratolí al punt desitjat per veure el nom de l'estació.

Feu clic per veure les observacions i els pronòstics meteorològics.

Per canviar el mapa: feu clic els botons verds amb una creu de color negre per apropar; al botó verd amb un guió per allunyar la imatge; o en les fletxes verdes per a mapes adjacents.


METAR-TAF: